sensor_id;sensor_type;location;lat;lon;timestamp;pressure;altitude;pressure_sealevel;temperature;humidity
61742;BME280;47650;49.848;9.620;2022-12-18T00:01:26;101034.59;;;-9.75;62.07
61742;BME280;47650;49.848;9.620;2022-12-18T00:03:53;101039.81;;;-9.69;61.85
61742;BME280;47650;49.848;9.620;2022-12-18T00:06:21;101060.44;;;-9.59;61.49
61742;BME280;47650;49.848;9.620;2022-12-18T00:08:48;101063.00;;;-9.59;61.80
61742;BME280;47650;49.848;9.620;2022-12-18T00:11:25;101068.16;;;-9.59;61.72
61742;BME280;47650;49.848;9.620;2022-12-18T00:13:59;101068.13;;;-9.61;61.89
61742;BME280;47650;49.848;9.620;2022-12-18T00:16:26;101068.13;;;-9.61;61.79
61742;BME280;47650;49.848;9.620;2022-12-18T00:18:56;101064.63;;;-9.68;61.82
61742;BME280;47650;49.848;9.620;2022-12-18T00:21:28;101077.53;;;-9.61;61.84
61742;BME280;47650;49.848;9.620;2022-12-18T00:23:56;101065.50;;;-9.66;61.73
61742;BME280;47650;49.848;9.620;2022-12-18T00:26:27;101067.16;;;-9.71;61.81
61742;BME280;47650;49.848;9.620;2022-12-18T00:28:54;101080.88;;;-9.69;61.75
61742;BME280;47650;49.848;9.620;2022-12-18T00:31:23;101091.13;;;-9.70;61.91
61742;BME280;47650;49.848;9.620;2022-12-18T00:33:48;101086.91;;;-9.67;62.15
61742;BME280;47650;49.848;9.620;2022-12-18T00:36:25;101082.63;;;-9.65;62.11
61742;BME280;47650;49.848;9.620;2022-12-18T00:38:53;101085.22;;;-9.63;61.92
61742;BME280;47650;49.848;9.620;2022-12-18T00:41:21;101087.78;;;-9.63;61.88
61742;BME280;47650;49.848;9.620;2022-12-18T00:44:07;101085.28;;;-9.58;61.70
61742;BME280;47650;49.848;9.620;2022-12-18T00:46:34;101082.75;;;-9.54;61.97
61742;BME280;47650;49.848;9.620;2022-12-18T00:49:00;101086.22;;;-9.50;61.89
61742;BME280;47650;49.848;9.620;2022-12-18T00:51:29;101069.84;;;-9.60;61.53
61742;BME280;47650;49.848;9.620;2022-12-18T00:53:56;101086.22;;;-9.49;61.63
61742;BME280;47650;49.848;9.620;2022-12-18T00:56:22;101082.81;;;-9.48;61.63
61742;BME280;47650;49.848;9.620;2022-12-18T00:58:49;101087.91;;;-9.52;61.63
61742;BME280;47650;49.848;9.620;2022-12-18T01:01:16;101092.22;;;-9.48;61.30
61742;BME280;47650;49.848;9.620;2022-12-18T01:03:42;101086.16;;;-9.56;61.57
61742;BME280;47650;49.848;9.620;2022-12-18T01:06:09;101102.50;;;-9.48;61.26
61742;BME280;47650;49.848;9.620;2022-12-18T01:08:35;101079.22;;;-9.63;61.37
61742;BME280;47650;49.848;9.620;2022-12-18T01:11:06;101112.81;;;-9.43;61.21
61742;BME280;47650;49.848;9.620;2022-12-18T01:13:32;101101.66;;;-9.47;61.23
61742;BME280;47650;49.848;9.620;2022-12-18T01:16:01;101102.53;;;-9.43;61.05
61742;BME280;47650;49.848;9.620;2022-12-18T01:18:26;101100.84;;;-9.43;60.95
61742;BME280;47650;49.848;9.620;2022-12-18T01:20:51;101105.13;;;-9.42;61.00
61742;BME280;47650;49.848;9.620;2022-12-18T01:23:24;101056.88;;;-9.71;60.95
61742;BME280;47650;49.848;9.620;2022-12-18T01:25:50;101059.44;;;-9.72;61.13
61742;BME280;47650;49.848;9.620;2022-12-18T01:28:17;101107.63;;;-9.50;61.15
61742;BME280;47650;49.848;9.620;2022-12-18T01:30:42;101102.38;;;-9.59;61.52
61742;BME280;47650;49.848;9.620;2022-12-18T01:33:09;101118.81;;;-9.46;61.70
61742;BME280;47650;49.848;9.620;2022-12-18T01:35:40;101068.84;;;-9.73;61.72
61742;BME280;47650;49.848;9.620;2022-12-18T01:38:06;101117.97;;;-9.43;61.30
61742;BME280;47650;49.848;9.620;2022-12-18T01:40:38;101105.03;;;-9.51;61.44
61742;BME280;47650;49.848;9.620;2022-12-18T01:43:07;101111.88;;;-9.50;61.45
61742;BME280;47650;49.848;9.620;2022-12-18T01:45:43;101100.72;;;-9.54;61.46
61742;BME280;47650;49.848;9.620;2022-12-18T01:48:09;101104.13;;;-9.56;61.55
61742;BME280;47650;49.848;9.620;2022-12-18T01:50:41;101093.00;;;-9.55;61.13
61742;BME280;47650;49.848;9.620;2022-12-18T01:53:15;101098.72;;;-9.78;61.15
61742;BME280;47650;49.848;9.620;2022-12-18T01:55:45;101105.72;;;-9.66;61.29
61742;BME280;47650;49.848;9.620;2022-12-18T01:58:11;101097.84;;;-9.80;61.46
61742;BME280;47650;49.848;9.620;2022-12-18T02:00:39;101113.25;;;-9.80;61.52
61742;BME280;47650;49.848;9.620;2022-12-18T02:03:05;101130.41;;;-9.74;61.24
61742;BME280;47650;49.848;9.620;2022-12-18T02:05:42;101128.59;;;-9.83;61.37
61742;BME280;47650;49.848;9.620;2022-12-18T02:11:07;101119.13;;;-9.89;61.37
61742;BME280;47650;49.848;9.620;2022-12-18T02:19:03;101106.19;;;-9.96;61.20
61742;BME280;47650;49.848;9.620;2022-12-18T02:22:10;101094.19;;;-9.97;61.25
61742;BME280;47650;49.848;9.620;2022-12-18T02:27:05;101100.13;;;-10.00;61.43
61742;BME280;47650;49.848;9.620;2022-12-18T02:29:37;101083.75;;;-10.11;61.30
61742;BME280;47650;49.848;9.620;2022-12-18T02:32:08;101050.97;;;-10.35;61.15
61742;BME280;47650;49.848;9.620;2022-12-18T02:34:38;101088.88;;;-10.13;61.25
61742;BME280;47650;49.848;9.620;2022-12-18T02:37:09;101090.50;;;-10.18;61.04
61742;BME280;47650;49.848;9.620;2022-12-18T02:39:38;101120.34;;;-10.23;61.59
61742;BME280;47650;49.848;9.620;2022-12-18T02:42:06;101117.69;;;-10.32;62.21
61742;BME280;47650;49.848;9.620;2022-12-18T02:44:49;101128.19;;;-10.15;62.68
61742;BME280;47650;49.848;9.620;2022-12-18T02:47:17;101113.59;;;-10.18;62.24
61742;BME280;47650;49.848;9.620;2022-12-18T02:53:23;101121.34;;;-10.15;62.31
61742;BME280;47650;49.848;9.620;2022-12-18T02:59:02;101130.66;;;-10.20;61.72
61742;BME280;47650;49.848;9.620;2022-12-18T03:04:42;101134.03;;;-10.24;61.96
61742;BME280;47650;49.848;9.620;2022-12-18T03:07:15;101127.16;;;-10.25;61.87
61742;BME280;47650;49.848;9.620;2022-12-18T03:09:45;101121.09;;;-10.30;60.85
61742;BME280;47650;49.848;9.620;2022-12-18T03:12:18;101122.84;;;-10.29;61.79
61742;BME280;47650;49.848;9.620;2022-12-18T03:15:19;101118.59;;;-10.27;61.71
61742;BME280;47650;49.848;9.620;2022-12-18T03:17:57;101105.66;;;-10.36;61.64
61742;BME280;47650;49.848;9.620;2022-12-18T03:20:25;101122.78;;;-10.35;61.42
61742;BME280;47650;49.848;9.620;2022-12-18T03:22:57;101121.09;;;-10.33;61.46
61742;BME280;47650;49.848;9.620;2022-12-18T03:25:25;101130.50;;;-10.34;61.19
61742;BME280;47650;49.848;9.620;2022-12-18T03:27:55;101134.78;;;-10.34;61.40
61742;BME280;47650;49.848;9.620;2022-12-18T03:30:23;101129.63;;;-10.34;60.95
61742;BME280;47650;49.848;9.620;2022-12-18T03:35:26;101118.50;;;-10.35;60.89
61742;BME280;47650;49.848;9.620;2022-12-18T03:37:55;101105.47;;;-10.49;61.03
61742;BME280;47650;49.848;9.620;2022-12-18T03:40:34;101124.41;;;-10.41;61.41
61742;BME280;47650;49.848;9.620;2022-12-18T03:43:09;101138.16;;;-10.35;61.25
61742;BME280;47650;49.848;9.620;2022-12-18T03:45:43;101132.97;;;-10.38;61.32
61742;BME280;47650;49.848;9.620;2022-12-18T03:48:24;101131.09;;;-10.49;61.57
61742;BME280;47650;49.848;9.620;2022-12-18T03:51:07;101125.22;;;-10.45;61.55
61742;BME280;47650;49.848;9.620;2022-12-18T03:53:51;101113.19;;;-10.47;61.51
61742;BME280;47650;49.848;9.620;2022-12-18T03:56:21;101120.03;;;-10.48;61.45
61742;BME280;47650;49.848;9.620;2022-12-18T03:58:48;101118.78;;;-10.71;61.99
61742;BME280;47650;49.848;9.620;2022-12-18T04:01:25;101120.59;;;-10.64;62.19
61742;BME280;47650;49.848;9.620;2022-12-18T04:03:54;101112.28;;;-10.51;62.70
61742;BME280;47650;49.848;9.620;2022-12-18T04:06:22;101113.91;;;-10.56;62.52
61742;BME280;47650;49.848;9.620;2022-12-18T04:08:48;101119.16;;;-10.50;62.23
61742;BME280;47650;49.848;9.620;2022-12-18T04:11:16;101119.75;;;-10.65;61.96
61742;BME280;47650;49.848;9.620;2022-12-18T04:13:43;101127.59;;;-10.57;61.98
61742;BME280;47650;49.848;9.620;2022-12-18T04:16:09;101135.28;;;-10.55;62.12
61742;BME280;47650;49.848;9.620;2022-12-18T04:18:35;101122.22;;;-10.69;61.85
61742;BME280;47650;49.848;9.620;2022-12-18T04:21:04;101105.09;;;-10.73;61.96
61742;BME280;47650;49.848;9.620;2022-12-18T04:23:31;101129.22;;;-10.59;62.02
61742;BME280;47650;49.848;9.620;2022-12-18T04:26:00;101128.31;;;-10.63;61.61
61742;BME280;47650;49.848;9.620;2022-12-18T04:28:27;101140.31;;;-10.62;61.59
61742;BME280;47650;49.848;9.620;2022-12-18T04:30:52;101136.78;;;-10.68;61.18
61742;BME280;47650;49.848;9.620;2022-12-18T04:33:19;101131.53;;;-10.76;61.17
61742;BME280;47650;49.848;9.620;2022-12-18T04:35:46;101142.75;;;-10.68;61.40
61742;BME280;47650;49.848;9.620;2022-12-18T04:38:13;101140.97;;;-10.73;61.25
61742;BME280;47650;49.848;9.620;2022-12-18T04:40:40;101146.16;;;-10.70;61.27
61742;BME280;47650;49.848;9.620;2022-12-18T04:43:07;101142.72;;;-10.69;61.34
61742;BME280;47650;49.848;9.620;2022-12-18T04:45:32;101144.41;;;-10.71;61.11
61742;BME280;47650;49.848;9.620;2022-12-18T04:48:01;101141.84;;;-10.71;60.72
61742;BME280;47650;49.848;9.620;2022-12-18T04:50:27;101099.63;;;-10.95;61.28
61742;BME280;47650;49.848;9.620;2022-12-18T04:52:54;101109.91;;;-10.92;60.73
61742;BME280;47650;49.848;9.620;2022-12-18T04:55:22;101142.72;;;-10.69;60.99
61742;BME280;47650;49.848;9.620;2022-12-18T04:57:47;101134.22;;;-10.68;61.37
61742;BME280;47650;49.848;9.620;2022-12-18T05:00:13;101128.97;;;-10.76;61.31
61742;BME280;47650;49.848;9.620;2022-12-18T05:02:38;101117.91;;;-10.73;61.57
61742;BME280;47650;49.848;9.620;2022-12-18T05:05:05;101113.66;;;-10.71;61.51
61742;BME280;47650;49.848;9.620;2022-12-18T05:07:30;101127.34;;;-10.69;61.39
61742;BME280;47650;49.848;9.620;2022-12-18T05:09:56;101120.91;;;-10.98;61.55
61742;BME280;47650;49.848;9.620;2022-12-18T05:12:21;101129.69;;;-10.83;61.23
61742;BME280;47650;49.848;9.620;2022-12-18T05:14:48;101132.41;;;-10.75;61.21
61742;BME280;47650;49.848;9.620;2022-12-18T05:17:14;101127.13;;;-10.85;60.85
61742;BME280;47650;49.848;9.620;2022-12-18T05:19:40;101154.44;;;-10.84;61.81
61742;BME280;47650;49.848;9.620;2022-12-18T05:22:06;101154.25;;;-10.96;62.04
61742;BME280;47650;49.848;9.620;2022-12-18T05:24:32;101127.59;;;-11.06;62.02
61742;BME280;47650;49.848;9.620;2022-12-18T05:26:59;101154.47;;;-10.82;61.81
61742;BME280;47650;49.848;9.620;2022-12-18T05:29:27;101162.94;;;-10.88;61.42
61742;BME280;47650;49.848;9.620;2022-12-18T05:31:54;101144.84;;;-10.95;60.84
61742;BME280;47650;49.848;9.620;2022-12-18T05:34:19;101159.56;;;-10.85;61.24
61742;BME280;47650;49.848;9.620;2022-12-18T05:36:48;101109.47;;;-11.17;60.91
61742;BME280;47650;49.848;9.620;2022-12-18T05:39:14;101156.13;;;-10.86;60.81
61742;BME280;47650;49.848;9.620;2022-12-18T05:41:39;101156.94;;;-10.87;60.69
61742;BME280;47650;49.848;9.620;2022-12-18T05:44:05;101156.06;;;-10.89;60.48
61742;BME280;47650;49.848;9.620;2022-12-18T05:46:32;101156.06;;;-10.89;60.55
61742;BME280;47650;49.848;9.620;2022-12-18T05:49:00;101128.47;;;-11.05;60.38
61742;BME280;47650;49.848;9.620;2022-12-18T05:51:36;101159.44;;;-10.93;60.92
61742;BME280;47650;49.848;9.620;2022-12-18T05:54:01;101162.88;;;-10.91;60.77
61742;BME280;47650;49.848;9.620;2022-12-18T05:56:27;101137.88;;;-11.03;60.81
61742;BME280;47650;49.848;9.620;2022-12-18T05:58:53;101167.13;;;-10.93;60.39
61742;BME280;47650;49.848;9.620;2022-12-18T06:01:23;101117.03;;;-11.24;61.00
61742;BME280;47650;49.848;9.620;2022-12-18T06:03:51;101174.78;;;-10.93;60.81
61742;BME280;47650;49.848;9.620;2022-12-18T06:06:23;101173.91;;;-10.93;60.84
61742;BME280;47650;49.848;9.620;2022-12-18T06:08:49;101176.44;;;-10.97;60.66
61742;BME280;47650;49.848;9.620;2022-12-18T06:11:24;101173.81;;;-11.00;60.79
61742;BME280;47650;49.848;9.620;2022-12-18T06:13:51;101181.47;;;-11.01;60.94
61742;BME280;47650;49.848;9.620;2022-12-18T06:16:17;101188.34;;;-11.00;60.36
61742;BME280;47650;49.848;9.620;2022-12-18T06:18:43;101187.38;;;-11.05;60.63
61742;BME280;47650;49.848;9.620;2022-12-18T06:21:10;101186.50;;;-11.06;61.04
61742;BME280;47650;49.848;9.620;2022-12-18T06:23:46;101176.13;;;-11.13;60.69
61742;BME280;47650;49.848;9.620;2022-12-18T06:26:13;101135.59;;;-11.35;61.59
61742;BME280;47650;49.848;9.620;2022-12-18T06:28:40;101170.94;;;-11.17;61.33
61742;BME280;47650;49.848;9.620;2022-12-18T06:31:06;101164.19;;;-11.11;61.38
61742;BME280;47650;49.848;9.620;2022-12-18T06:33:32;101157.31;;;-11.16;60.97
61742;BME280;47650;49.848;9.620;2022-12-18T06:36:15;101139.81;;;-11.38;61.56
61742;BME280;47650;49.848;9.620;2022-12-18T06:38:43;101194.47;;;-10.90;61.16
61742;BME280;47650;49.848;9.620;2022-12-18T06:41:15;101198.81;;;-10.88;61.24
61742;BME280;47650;49.848;9.620;2022-12-18T06:43:41;101209.22;;;-10.79;61.43
61742;BME280;47650;49.848;9.620;2022-12-18T06:46:07;101195.47;;;-10.82;60.97
61742;BME280;47650;49.848;9.620;2022-12-18T06:48:32;101210.16;;;-10.73;61.08
61742;BME280;47650;49.848;9.620;2022-12-18T06:50:58;101205.09;;;-10.70;61.11
61742;BME280;47650;49.848;9.620;2022-12-18T06:53:25;101221.47;;;-10.62;60.93
61742;BME280;47650;49.848;9.620;2022-12-18T06:55:50;101148.22;;;-10.98;60.59
61742;BME280;47650;49.848;9.620;2022-12-18T06:58:16;101214.75;;;-10.54;60.74
61742;BME280;47650;49.848;9.620;2022-12-18T07:00:42;101224.22;;;-10.51;60.71
61742;BME280;47650;49.848;9.620;2022-12-18T07:03:07;101221.66;;;-10.51;59.98
61742;BME280;47650;49.848;9.620;2022-12-18T07:05:32;101215.69;;;-10.52;60.13
61742;BME280;47650;49.848;9.620;2022-12-18T07:07:58;101222.41;;;-10.55;59.90
61742;BME280;47650;49.848;9.620;2022-12-18T07:10:24;101170.50;;;-10.94;60.13
61742;BME280;47650;49.848;9.620;2022-12-18T07:12:51;101225.00;;;-10.54;60.42
61742;BME280;47650;49.848;9.620;2022-12-18T07:15:16;101219.03;;;-10.54;61.10
61742;BME280;47650;49.848;9.620;2022-12-18T07:17:42;101228.72;;;-10.36;61.30
61742;BME280;47650;49.848;9.620;2022-12-18T07:20:08;101237.50;;;-10.22;61.36
61742;BME280;47650;49.848;9.620;2022-12-18T07:22:33;101237.72;;;-10.08;61.32
61742;BME280;47650;49.848;9.620;2022-12-18T07:24:59;101240.53;;;-9.93;61.24
61742;BME280;47650;49.848;9.620;2022-12-18T07:27:25;101244.97;;;-9.81;61.02
61742;BME280;47650;49.848;9.620;2022-12-18T07:29:53;101243.59;;;-9.57;60.73
61742;BME280;47650;49.848;9.620;2022-12-18T07:32:19;101251.53;;;-9.42;60.93
61742;BME280;47650;49.848;9.620;2022-12-18T07:34:44;101249.25;;;-9.19;60.74
61742;BME280;47650;49.848;9.620;2022-12-18T07:37:09;101208.03;;;-9.28;60.65
61742;BME280;47650;49.848;9.620;2022-12-18T07:39:35;101243.19;;;-9.25;59.42
61742;BME280;47650;49.848;9.620;2022-12-18T07:42:02;101240.22;;;-8.84;59.83
61742;BME280;47650;49.848;9.620;2022-12-18T07:44:46;101234.38;;;-8.71;60.02
61742;BME280;47650;49.848;9.620;2022-12-18T07:47:11;101247.53;;;-8.39;60.14
61742;BME280;47650;49.848;9.620;2022-12-18T07:49:36;101217.47;;;-8.44;59.45
61742;BME280;47650;49.848;9.620;2022-12-18T07:52:01;101213.28;;;-8.33;58.97
61742;BME280;47650;49.848;9.620;2022-12-18T07:54:27;101214.25;;;-8.16;59.27
61742;BME280;47650;49.848;9.620;2022-12-18T07:56:52;101229.75;;;-8.11;59.54
61742;BME280;47650;49.848;9.620;2022-12-18T07:59:19;101187.28;;;-8.64;60.33
61742;BME280;47650;49.848;9.620;2022-12-18T08:01:44;101255.50;;;-8.06;59.12
61742;BME280;47650;49.848;9.620;2022-12-18T08:04:10;101246.19;;;-7.94;59.59
61742;BME280;47650;49.848;9.620;2022-12-18T08:06:35;101252.44;;;-7.59;59.96
61742;BME280;47650;49.848;9.620;2022-12-18T08:09:02;101259.22;;;-7.70;59.15
61742;BME280;47650;49.848;9.620;2022-12-18T08:11:28;101255.84;;;-7.60;60.35
61742;BME280;47650;49.848;9.620;2022-12-18T08:13:54;101268.03;;;-7.34;60.08
61742;BME280;47650;49.848;9.620;2022-12-18T08:16:28;101244.78;;;-7.47;59.88
61742;BME280;47650;49.848;9.620;2022-12-18T08:18:54;101253.44;;;-7.29;59.39
61742;BME280;47650;49.848;9.620;2022-12-18T08:21:22;101256.16;;;-7.00;59.30
61742;BME280;47650;49.848;9.620;2022-12-18T08:23:50;101252.84;;;-6.64;60.17
61742;BME280;47650;49.848;9.620;2022-12-18T08:26:16;101256.28;;;-6.49;59.94
61742;BME280;47650;49.848;9.620;2022-12-18T08:28:42;101251.16;;;-6.21;59.63
61742;BME280;47650;49.848;9.620;2022-12-18T08:31:13;101247.72;;;-6.47;57.97
61742;BME280;47650;49.848;9.620;2022-12-18T08:33:39;101256.34;;;-6.28;58.45
61742;BME280;47650;49.848;9.620;2022-12-18T08:36:08;101250.31;;;-6.34;58.31
61742;BME280;47650;49.848;9.620;2022-12-18T08:38:34;101215.75;;;-7.07;60.54
61742;BME280;47650;49.848;9.620;2022-12-18T08:41:02;101249.34;;;-6.90;61.92
61742;BME280;47650;49.848;9.620;2022-12-18T08:43:28;101239.13;;;-6.35;61.95
61742;BME280;47650;49.848;9.620;2022-12-18T08:46:13;101227.00;;;-6.77;62.43
61742;BME280;47650;49.848;9.620;2022-12-18T08:48:39;101244.22;;;-6.78;61.37
61742;BME280;47650;49.848;9.620;2022-12-18T08:51:07;101248.34;;;-7.17;63.40
61742;BME280;47650;49.848;9.620;2022-12-18T08:53:36;101230.50;;;-6.34;63.39
61742;BME280;47650;49.848;9.620;2022-12-18T08:56:03;101187.47;;;-6.56;62.34
61742;BME280;47650;49.848;9.620;2022-12-18T08:58:36;101209.00;;;-6.42;62.68
61742;BME280;47650;49.848;9.620;2022-12-18T09:01:07;101215.03;;;-6.21;61.57
61742;BME280;47650;49.848;9.620;2022-12-18T09:03:34;101201.25;;;-6.59;63.32
61742;BME280;47650;49.848;9.620;2022-12-18T09:06:01;101223.56;;;-5.70;62.42
61742;BME280;47650;49.848;9.620;2022-12-18T09:08:27;101203.66;;;-5.40;62.69
61742;BME280;47650;49.848;9.620;2022-12-18T09:10:58;101219.91;;;-4.98;61.27
61742;BME280;47650;49.848;9.620;2022-12-18T09:13:24;101217.19;;;-4.77;60.55
61742;BME280;47650;49.848;9.620;2022-12-18T09:15:54;101217.94;;;-4.56;59.80
61742;BME280;47650;49.848;9.620;2022-12-18T09:18:22;101197.16;;;-4.47;59.57
61742;BME280;47650;49.848;9.620;2022-12-18T09:20:48;101166.97;;;-4.46;57.90
61742;BME280;47650;49.848;9.620;2022-12-18T09:23:15;101204.41;;;-5.04;58.56
61742;BME280;47650;49.848;9.620;2022-12-18T09:25:40;101169.59;;;-4.57;59.23
61742;BME280;47650;49.848;9.620;2022-12-18T09:28:10;101191.75;;;-4.22;59.53
61742;BME280;47650;49.848;9.620;2022-12-18T09:30:41;101193.59;;;-4.30;59.35
61742;BME280;47650;49.848;9.620;2022-12-18T09:33:07;101182.16;;;-4.08;59.53
61742;BME280;47650;49.848;9.620;2022-12-18T09:35:32;101182.69;;;-3.72;59.68
61742;BME280;47650;49.848;9.620;2022-12-18T09:38:00;101200.81;;;-4.76;59.65
61742;BME280;47650;49.848;9.620;2022-12-18T09:40:42;101196.06;;;-4.15;61.97
61742;BME280;47650;49.848;9.620;2022-12-18T09:43:14;101191.13;;;-4.49;60.53
61742;BME280;47650;49.848;9.620;2022-12-18T09:45:47;101187.56;;;-4.32;62.55
61742;BME280;47650;49.848;9.620;2022-12-18T09:48:27;101154.19;;;-3.75;62.15
61742;BME280;47650;49.848;9.620;2022-12-18T09:51:00;101170.91;;;-3.25;61.13
61742;BME280;47650;49.848;9.620;2022-12-18T09:53:30;101185.38;;;-3.83;60.32
61742;BME280;47650;49.848;9.620;2022-12-18T09:55:57;101195.47;;;-4.51;62.56
61742;BME280;47650;49.848;9.620;2022-12-18T09:58:53;101204.66;;;-4.13;62.84
61742;BME280;47650;49.848;9.620;2022-12-18T10:01:23;101187.63;;;-3.50;63.57
61742;BME280;47650;49.848;9.620;2022-12-18T10:03:50;101190.56;;;-3.08;62.82
61742;BME280;47650;49.848;9.620;2022-12-18T10:06:32;101195.50;;;-2.87;62.02
61742;BME280;47650;49.848;9.620;2022-12-18T10:09:12;101194.91;;;-2.47;61.17
61742;BME280;47650;49.848;9.620;2022-12-18T10:12:07;101177.53;;;-2.43;59.44
61742;BME280;47650;49.848;9.620;2022-12-18T10:20:36;101171.88;;;-1.67;59.07
61742;BME280;47650;49.848;9.620;2022-12-18T10:28:23;101139.47;;;-1.08;57.15
61742;BME280;47650;49.848;9.620;2022-12-18T10:30:49;101145.81;;;-1.20;56.43
61742;BME280;47650;49.848;9.620;2022-12-18T10:35:43;101151.00;;;-1.20;57.70
61742;BME280;47650;49.848;9.620;2022-12-18T10:41:05;101149.97;;;-1.13;58.07
61742;BME280;47650;49.848;9.620;2022-12-18T10:43:34;101145.31;;;-1.39;57.51
61742;BME280;47650;49.848;9.620;2022-12-18T10:48:31;101113.81;;;-1.67;58.86
61742;BME280;47650;49.848;9.620;2022-12-18T10:50:58;101146.31;;;-1.45;59.09
61742;BME280;47650;49.848;9.620;2022-12-18T10:53:28;101143.13;;;-1.17;59.24
61742;BME280;47650;49.848;9.620;2022-12-18T10:55:57;101115.94;;;-1.44;58.39
61742;BME280;47650;49.848;9.620;2022-12-18T10:58:36;101124.91;;;-1.59;58.15
61742;BME280;47650;49.848;9.620;2022-12-18T11:01:08;101096.13;;;-1.94;59.27
61742;BME280;47650;49.848;9.620;2022-12-18T11:03:34;101126.09;;;-0.91;58.68
61742;BME280;47650;49.848;9.620;2022-12-18T11:06:03;101076.97;;;-1.46;57.77
61742;BME280;47650;49.848;9.620;2022-12-18T11:08:29;101123.25;;;-0.82;57.94
61742;BME280;47650;49.848;9.620;2022-12-18T11:10:54;101120.88;;;-0.55;58.02
61742;BME280;47650;49.848;9.620;2022-12-18T11:13:23;101101.59;;;-1.62;58.70
61742;BME280;47650;49.848;9.620;2022-12-18T11:15:50;101096.69;;;-0.61;58.30
61742;BME280;47650;49.848;9.620;2022-12-18T11:18:28;101112.22;;;-0.93;57.27
61742;BME280;47650;49.848;9.620;2022-12-18T11:21:07;101096.03;;;-0.33;57.75
61742;BME280;47650;49.848;9.620;2022-12-18T11:24:00;101078.81;;;-0.40;57.47
61742;BME280;47650;49.848;9.620;2022-12-18T11:26:35;101093.88;;;-0.51;57.26
61742;BME280;47650;49.848;9.620;2022-12-18T11:29:09;101097.72;;;-1.43;59.07
61742;BME280;47650;49.848;9.620;2022-12-18T11:31:35;101099.47;;;-1.04;57.98
61742;BME280;47650;49.848;9.620;2022-12-18T11:34:10;101089.78;;;-0.98;60.03
61742;BME280;47650;49.848;9.620;2022-12-18T11:36:45;101074.22;;;-0.65;59.06
61742;BME280;47650;49.848;9.620;2022-12-18T11:39:35;101080.97;;;-0.93;58.23
61742;BME280;47650;49.848;9.620;2022-12-18T11:48:05;101088.78;;;-0.22;58.76
61742;BME280;47650;49.848;9.620;2022-12-18T11:50:49;101086.00;;;-0.48;58.31
61742;BME280;47650;49.848;9.620;2022-12-18T11:53:16;101033.91;;;-0.50;57.78
61742;BME280;47650;49.848;9.620;2022-12-18T11:55:54;101064.41;;;0.12;57.10
61742;BME280;47650;49.848;9.620;2022-12-18T11:58:35;101060.97;;;0.42;57.14
61742;BME280;47650;49.848;9.620;2022-12-18T12:01:16;101028.94;;;0.05;56.20
61742;BME280;47650;49.848;9.620;2022-12-18T12:06:30;101023.16;;;-0.38;57.99
61742;BME280;47650;49.848;9.620;2022-12-18T12:18:33;101037.06;;;0.55;57.34
61742;BME280;47650;49.848;9.620;2022-12-18T12:26:38;101033.91;;;1.01;54.98
61742;BME280;47650;49.848;9.620;2022-12-18T12:29:38;101031.13;;;1.05;55.05
61742;BME280;47650;49.848;9.620;2022-12-18T12:34:55;101023.81;;;1.17;55.73
61742;BME280;47650;49.848;9.620;2022-12-18T12:37:53;101034.97;;;1.22;55.12
61742;BME280;47650;49.848;9.620;2022-12-18T12:40:20;101019.84;;;1.31;55.32
61742;BME280;47650;49.848;9.620;2022-12-18T12:42:55;101026.66;;;1.09;54.11
61742;BME280;47650;49.848;9.620;2022-12-18T12:46:11;101021.56;;;1.06;54.52
61742;BME280;47650;49.848;9.620;2022-12-18T12:48:51;101011.94;;;1.33;54.81
61742;BME280;47650;49.848;9.620;2022-12-18T12:51:25;101008.06;;;1.45;54.59
61742;BME280;47650;49.848;9.620;2022-12-18T12:53:52;101012.63;;;1.38;55.01
61742;BME280;47650;49.848;9.620;2022-12-18T12:56:19;100993.31;;;1.17;55.40
61742;BME280;47650;49.848;9.620;2022-12-18T13:01:34;101006.66;;;1.35;55.39
61742;BME280;47650;49.848;9.620;2022-12-18T13:04:19;101006.03;;;1.53;55.10
61742;BME280;47650;49.848;9.620;2022-12-18T13:07:01;100997.81;;;1.64;55.21
61742;BME280;47650;49.848;9.620;2022-12-18T13:09:32;100992.03;;;1.79;54.56
61742;BME280;47650;49.848;9.620;2022-12-18T13:12:10;100999.25;;;1.22;54.64
61742;BME280;47650;49.848;9.620;2022-12-18T13:15:12;100989.72;;;1.72;55.31
61742;BME280;47650;49.848;9.620;2022-12-18T13:17:38;101000.53;;;1.86;55.03
61742;BME280;47650;49.848;9.620;2022-12-18T13:20:12;100988.13;;;1.91;54.53
61742;BME280;47650;49.848;9.620;2022-12-18T13:22:46;100995.81;;;1.96;54.27
61742;BME280;47650;49.848;9.620;2022-12-18T13:28:14;100984.50;;;1.72;54.56
61742;BME280;47650;49.848;9.620;2022-12-18T13:45:48;100950.34;;;1.51;56.20
61742;BME280;47650;49.848;9.620;2022-12-18T13:48:23;100963.22;;;1.32;56.79
61742;BME280;47650;49.848;9.620;2022-12-18T13:50:59;100947.16;;;1.43;56.17
61742;BME280;47650;49.848;9.620;2022-12-18T13:53:32;100950.09;;;1.34;56.36
61742;BME280;47650;49.848;9.620;2022-12-18T13:55:59;100952.97;;;1.51;56.64
61742;BME280;47650;49.848;9.620;2022-12-18T13:58:25;100956.75;;;1.17;57.38
61742;BME280;47650;49.848;9.620;2022-12-18T14:00:51;100967.03;;;1.47;57.17
61742;BME280;47650;49.848;9.620;2022-12-18T14:03:34;100940.22;;;1.42;56.30
61742;BME280;47650;49.848;9.620;2022-12-18T14:06:07;100967.72;;;1.52;56.35
61742;BME280;47650;49.848;9.620;2022-12-18T14:08:39;100983.22;;;1.58;56.08
61742;BME280;47650;49.848;9.620;2022-12-18T14:11:06;100975.03;;;1.67;56.10
61742;BME280;47650;49.848;9.620;2022-12-18T14:13:37;100980.06;;;1.74;55.88
61742;BME280;47650;49.848;9.620;2022-12-18T14:16:06;100968.34;;;1.84;56.25
61742;BME280;47650;49.848;9.620;2022-12-18T14:18:52;100949.13;;;1.85;56.14
61742;BME280;47650;49.848;9.620;2022-12-18T14:21:27;100984.53;;;1.94;54.87
61742;BME280;47650;49.848;9.620;2022-12-18T14:26:34;100985.69;;;1.86;55.59
61742;BME280;47650;49.848;9.620;2022-12-18T14:29:25;100986.47;;;1.88;55.63
61742;BME280;47650;49.848;9.620;2022-12-18T14:32:11;100950.66;;;1.67;55.33
61742;BME280;47650;49.848;9.620;2022-12-18T14:34:39;100973.53;;;1.85;56.03
61742;BME280;47650;49.848;9.620;2022-12-18T14:37:07;100978.56;;;1.90;55.66